createdAt,value
2023-03-13T00:00:27.534Z,62.97
2023-03-13T00:05:31.634Z,63.38
2023-03-13T00:10:38.380Z,63.84
2023-03-13T00:15:43.880Z,64.27
2023-03-13T00:20:49.976Z,63.82
2023-03-13T00:25:58.648Z,64.47
2023-03-13T00:31:05.033Z,64.72
2023-03-13T00:36:11.738Z,66.02
2023-03-13T00:41:17.498Z,66.32
2023-03-13T00:46:24.971Z,67.34
2023-03-13T00:51:30.019Z,67.07
2023-03-13T00:56:34.096Z,66.83
2023-03-13T01:01:43.402Z,66.31
2023-03-13T01:06:47.401Z,67.07
2023-03-13T01:11:51.367Z,66.98
2023-03-13T01:16:59.854Z,66.62
2023-03-13T01:22:03.970Z,65.51
2023-03-13T01:27:08.223Z,65.46
2023-03-13T01:32:13.729Z,65.09
2023-03-13T01:37:17.918Z,66.17
2023-03-13T01:42:21.883Z,65.38
2023-03-13T01:47:27.543Z,66.02
2023-03-13T01:52:47.880Z,66.61
2023-03-13T01:57:57.389Z,65.91
2023-03-13T02:03:10.408Z,65.78
2023-03-13T02:08:19.470Z,66.22
2023-03-13T02:13:23.874Z,65.81
2023-03-13T02:18:29.708Z,68.18
2023-03-13T02:23:40.818Z,69.38
2023-03-13T02:28:46.770Z,69.44
2023-03-13T02:33:54.422Z,69.99
2023-03-13T02:39:03.352Z,69.48
2023-03-13T02:44:09.713Z,69.02
2023-03-13T02:49:23.164Z,69.44
2023-03-13T02:54:31.809Z,69.46
2023-03-13T02:59:37.663Z,69.34
2023-03-13T03:04:41.695Z,67.84
2023-03-13T03:09:48.423Z,67.22
2023-03-13T03:14:57.875Z,67.87
2023-03-13T03:20:02.644Z,69.02
2023-03-13T03:25:07.505Z,68.95
2023-03-13T03:30:14.152Z,69.48
2023-03-13T03:35:18.653Z,71.03
2023-03-13T03:40:22.794Z,70.90
2023-03-13T03:45:28.449Z,71.03
2023-03-13T03:50:32.600Z,68.47
2023-03-13T03:55:38.972Z,70.50
2023-03-13T04:00:46.509Z,70.76
2023-03-13T04:05:51.786Z,71.14
2023-03-13T04:10:56.541Z,70.36
2023-03-13T04:16:10.282Z,68.79
2023-03-13T04:21:15.201Z,69.10
2023-03-13T04:26:27.067Z,69.44
2023-03-13T04:31:34.702Z,70.07
2023-03-13T04:37:07.997Z,70.35
2023-03-13T04:42:30.810Z,70.66
2023-03-13T04:47:59.608Z,70.39
2023-03-13T04:53:42.297Z,71.04
2023-03-13T04:59:06.707Z,70.13
2023-03-13T05:04:33.304Z,69.95
2023-03-13T05:09:59.904Z,68.72
2023-03-13T05:15:14.350Z,68.34
2023-03-13T05:20:41.367Z,69.12
2023-03-13T05:25:59.066Z,68.91
2023-03-13T05:31:18.055Z,69.82
2023-03-13T05:37:02.914Z,68.22
2023-03-13T05:42:22.928Z,68.39
2023-03-13T05:47:51.973Z,67.89
2023-03-13T05:53:19.116Z,68.64
2023-03-13T05:58:43.662Z,67.63
2023-03-13T06:04:06.079Z,66.83
2023-03-13T06:09:14.357Z,65.81
2023-03-13T06:14:18.952Z,64.78
2023-03-13T06:19:51.992Z,62.32
2023-03-13T06:24:57.542Z,60.93
2023-03-13T06:30:01.562Z,61.51
2023-03-13T06:35:06.804Z,61.52
2023-03-13T06:40:13.698Z,60.37
2023-03-13T06:45:18.297Z,59.66
2023-03-13T06:50:22.439Z,57.88
2023-03-13T06:55:28.144Z,56.64
2023-03-13T07:00:32.503Z,54.27
2023-03-13T07:05:36.532Z,54.12
2023-03-13T07:10:44.388Z,52.71
2023-03-13T07:15:50.102Z,50.57
2023-03-13T07:20:55.607Z,48.90
2023-03-13T07:26:02.950Z,48.21
2023-03-13T07:31:08.839Z,45.27
2023-03-13T07:36:14.616Z,43.68
2023-03-13T07:41:21.244Z,42.55
2023-03-13T07:46:25.705Z,40.66
2023-03-13T07:51:42.631Z,40.50
2023-03-13T07:56:49.728Z,38.04
2023-03-13T08:01:53.927Z,39.07
2023-03-13T08:06:58.496Z,38.21
2023-03-13T08:12:04.144Z,36.97
2023-03-13T08:17:08.432Z,35.01
2023-03-13T08:22:12.543Z,34.88
2023-03-13T08:27:17.923Z,32.63
2023-03-13T08:32:22.162Z,31.59
2023-03-13T08:37:26.266Z,31.85
2023-03-13T08:42:31.658Z,32.17
2023-03-13T08:47:36.268Z,32.08
2023-03-13T08:52:40.465Z,31.11
2023-03-13T08:57:45.810Z,30.19
2023-03-13T09:02:49.816Z,28.97
2023-03-13T09:07:55.191Z,27.16
2023-03-13T09:13:00.573Z,27.64
2023-03-13T09:18:05.061Z,29.22
2023-03-13T09:23:09.596Z,29.19
2023-03-13T09:28:15.401Z,28.04
2023-03-13T09:33:20.403Z,26.91
2023-03-13T09:38:24.594Z,27.75
2023-03-13T09:43:42.366Z,26.95
2023-03-13T09:48:50.426Z,26.84
2023-03-13T09:53:59.624Z,25.28
2023-03-13T09:59:11.382Z,25.31
2023-03-13T10:04:29.954Z,25.12
2023-03-13T10:09:36.872Z,26.74
2023-03-13T10:14:55.183Z,26.75
2023-03-13T10:20:08.614Z,25.98
2023-03-13T10:25:27.035Z,26.29
2023-03-13T10:30:35.539Z,26.24
2023-03-13T10:35:42.337Z,25.32
2023-03-13T10:40:59.025Z,25.51
2023-03-13T10:46:06.357Z,26.49
2023-03-13T10:51:22.680Z,25.39
2023-03-13T10:56:31.802Z,25.63
2023-03-13T11:01:45.559Z,25.91
2023-03-13T11:06:53.674Z,25.75
2023-03-13T11:12:03.865Z,25.07
2023-03-13T11:17:21.104Z,24.99
2023-03-13T11:22:31.854Z,25.36
2023-03-13T11:27:43.146Z,25.01
2023-03-13T11:32:52.653Z,26.40
2023-03-13T11:38:01.853Z,24.98
2023-03-13T11:55:54.361Z,24.59
2023-03-13T12:01:04.060Z,24.14
2023-03-13T12:06:27.578Z,24.29
2023-03-13T12:11:38.260Z,24.03
2023-03-13T12:16:47.503Z,24.85
2023-03-13T12:21:54.235Z,24.21
2023-03-13T12:27:04.300Z,24.02
2023-03-13T12:32:15.412Z,23.54
2023-03-13T12:37:27.787Z,23.50
2023-03-13T12:42:44.948Z,23.75
2023-03-13T12:48:27.177Z,24.13
2023-03-13T12:53:50.187Z,23.82
2023-03-13T12:58:58.635Z,23.87
2023-03-13T13:04:06.876Z,23.13
2023-03-13T13:09:20.977Z,22.90
2023-03-13T13:15:03.948Z,23.42
2023-03-13T13:20:42.811Z,23.43
2023-03-13T13:25:47.052Z,23.23
2023-03-13T13:30:55.956Z,23.66
2023-03-13T13:36:21.245Z,23.46
2023-03-13T13:41:36.920Z,23.66
2023-03-13T13:46:47.694Z,23.44
2023-03-13T13:52:21.693Z,23.01
2023-03-13T13:57:27.849Z,23.34
2023-03-13T14:02:35.948Z,23.44
2023-03-13T14:07:54.973Z,23.74
2023-03-13T14:13:00.513Z,23.78
2023-03-13T14:18:15.931Z,23.20
2023-03-13T14:23:32.125Z,23.68
2023-03-13T14:28:36.417Z,23.55
2023-03-13T14:33:43.508Z,23.44
2023-03-13T14:38:56.088Z,23.06
2023-03-13T14:44:06.215Z,23.44
2023-03-13T14:49:21.187Z,23.08
2023-03-13T14:54:27.859Z,23.99
2023-03-13T14:59:32.017Z,24.11
2023-03-13T15:04:59.875Z,24.86
2023-03-13T15:10:04.464Z,25.48
2023-03-13T15:15:12.211Z,25.58
2023-03-13T15:20:18.604Z,25.85
2023-03-13T15:25:25.124Z,25.86
2023-03-13T15:30:29.550Z,25.98
2023-03-13T15:35:35.625Z,25.87
2023-03-13T15:40:41.723Z,26.61
2023-03-13T15:45:51.700Z,26.62
2023-03-13T15:51:00.267Z,26.93
2023-03-13T15:56:13.174Z,27.63
2023-03-13T16:01:18.894Z,28.47
2023-03-13T16:06:31.453Z,28.76
2023-03-13T16:11:35.925Z,29.37
2023-03-13T16:16:41.057Z,32.04
2023-03-13T16:21:48.589Z,33.01
2023-03-13T16:26:52.791Z,33.08
2023-03-13T16:31:59.440Z,34.20
2023-03-13T16:37:13.377Z,34.45
2023-03-13T16:42:17.460Z,36.48
2023-03-13T16:47:25.301Z,35.23
2023-03-13T16:52:31.146Z,37.69
2023-03-13T16:57:35.915Z,39.49
2023-03-13T17:02:42.117Z,40.94
2023-03-13T17:07:50.646Z,41.99
2023-03-13T17:12:55.484Z,42.16
2023-03-13T17:18:01.225Z,42.91
2023-03-13T17:23:07.753Z,43.92
2023-03-13T17:28:15.259Z,43.52
2023-03-13T17:33:20.141Z,43.49
2023-03-13T17:38:26.334Z,45.04
2023-03-13T17:43:30.549Z,45.59
2023-03-13T17:48:34.669Z,43.93
2023-03-13T17:53:40.181Z,43.79
2023-03-13T17:58:44.914Z,44.98
2023-03-13T18:03:51.064Z,45.58
2023-03-13T18:08:58.965Z,47.88
2023-03-13T18:14:04.444Z,49.39
2023-03-13T18:19:13.162Z,51.10
2023-03-13T18:24:19.082Z,50.07
2023-03-13T18:29:27.400Z,49.52
2023-03-13T18:34:32.007Z,50.00
2023-03-13T18:39:38.066Z,51.81
2023-03-13T18:44:42.382Z,51.88
2023-03-13T18:49:47.106Z,52.00
2023-03-13T18:54:52.766Z,52.49
2023-03-13T18:59:57.177Z,52.65
2023-03-13T19:05:01.632Z,50.01
2023-03-13T19:10:19.050Z,50.45
2023-03-13T19:15:25.862Z,50.85
2023-03-13T19:20:30.483Z,51.61
2023-03-13T19:25:38.469Z,51.03
2023-03-13T19:30:44.701Z,50.76
2023-03-13T19:35:49.202Z,52.74
2023-03-13T19:40:55.775Z,52.92
2023-03-13T19:46:02.358Z,53.65
2023-03-13T19:51:08.486Z,53.69
2023-03-13T19:56:22.949Z,52.73
2023-03-13T20:01:27.913Z,52.60
2023-03-13T20:06:36.467Z,54.07
2023-03-13T20:11:43.075Z,53.41
2023-03-13T20:16:49.148Z,53.98
2023-03-13T20:21:53.381Z,55.59
2023-03-13T20:27:00.101Z,54.36
2023-03-13T20:32:06.135Z,52.87
2023-03-13T20:37:10.498Z,52.84
2023-03-13T20:42:16.634Z,53.95
2023-03-13T20:47:22.928Z,53.98
2023-03-13T20:52:27.373Z,53.80
2023-03-13T20:57:32.780Z,54.50
2023-03-13T21:02:38.089Z,53.69
2023-03-13T21:07:42.796Z,54.18
2023-03-13T21:12:48.792Z,56.71
2023-03-13T21:17:53.855Z,57.18
2023-03-13T21:22:58.486Z,56.34
2023-03-13T21:28:05.598Z,56.80
2023-03-13T21:33:10.142Z,56.14
2023-03-13T21:38:14.693Z,55.80
2023-03-13T21:43:20.151Z,56.64
2023-03-13T21:48:24.386Z,57.27
2023-03-13T21:53:28.420Z,57.53
2023-03-13T21:58:34.237Z,56.21
2023-03-13T22:03:38.418Z,55.96
2023-03-13T22:08:42.773Z,57.89
2023-03-13T22:13:48.198Z,57.33
2023-03-13T22:18:53.051Z,57.71
2023-03-13T22:23:57.494Z,57.10
2023-03-13T22:29:03.160Z,56.03
2023-03-13T22:34:07.702Z,57.66
2023-03-13T22:39:11.795Z,58.28
2023-03-13T22:44:18.230Z,58.25
2023-03-13T22:49:22.158Z,57.97
2023-03-13T22:54:26.396Z,58.86
2023-03-13T22:59:32.349Z,59.92
2023-03-13T23:04:36.320Z,58.96
2023-03-13T23:09:40.544Z,58.87
2023-03-13T23:14:46.166Z,58.40
2023-03-13T23:19:50.353Z,59.24
2023-03-13T23:24:55.220Z,59.03
2023-03-13T23:30:04.363Z,58.80
2023-03-13T23:35:10.965Z,58.94
2023-03-13T23:40:15.260Z,58.16
2023-03-13T23:45:20.875Z,59.81
2023-03-13T23:50:25.465Z,59.39
2023-03-13T23:55:29.674Z,58.27
